createdAt,value
2019-04-20T00:01:40.943Z,93.37
2019-04-20T00:04:17.021Z,95.39
2019-04-20T00:06:47.798Z,95.71
2019-04-20T00:09:18.729Z,97.86
2019-04-20T00:11:53.483Z,98.15
2019-04-20T00:14:19.311Z,97.97
2019-04-20T00:16:44.599Z,99.76
2019-04-20T00:19:15.311Z,99.43
2019-04-20T00:22:10.109Z,99.81
2019-04-20T00:24:45.430Z,100.00
2019-04-20T00:27:37.040Z,100.00
2019-04-20T00:30:00.149Z,100.00
2019-04-20T00:32:29.587Z,100.00
2019-04-20T00:34:49.056Z,100.00
2019-04-20T00:37:19.286Z,100.00
2019-04-20T00:39:48.873Z,100.00
2019-04-20T00:42:19.817Z,100.00
2019-04-20T00:45:00.115Z,98.14
2019-04-20T00:47:34.815Z,97.94
2019-04-20T00:50:02.565Z,99.53
2019-04-20T00:52:33.191Z,100.00
2019-04-20T00:54:53.924Z,100.00
2019-04-20T00:57:34.599Z,100.00
2019-04-20T01:00:12.576Z,100.00
2019-04-20T01:02:37.150Z,100.00
2019-04-20T01:05:11.016Z,100.00
2019-04-20T01:07:46.394Z,100.00
2019-04-20T01:10:13.164Z,100.00
2019-04-20T01:12:44.419Z,100.00
2019-04-20T01:15:25.078Z,100.00
2019-04-20T01:17:45.256Z,100.00
2019-04-20T01:20:14.601Z,100.00
2019-04-20T01:22:53.708Z,100.00
2019-04-20T01:25:23.095Z,100.00
2019-04-20T01:28:06.646Z,100.00
2019-04-20T01:30:25.173Z,100.00
2019-04-20T01:33:00.197Z,100.00
2019-04-20T01:35:38.251Z,100.00
2019-04-20T01:38:08.562Z,100.00
2019-04-20T01:40:21.119Z,100.00
2019-04-20T01:42:51.218Z,100.00
2019-04-20T01:45:27.417Z,100.00
2019-04-20T01:47:55.849Z,100.00
2019-04-20T01:50:27.657Z,100.00
2019-04-20T01:53:08.637Z,100.00
2019-04-20T01:55:44.114Z,100.00
2019-04-20T01:58:27.436Z,100.00
2019-04-20T02:00:55.603Z,100.00
2019-04-20T02:03:40.328Z,100.00
2019-04-20T02:06:12.714Z,100.00
2019-04-20T02:08:37.940Z,100.00
2019-04-20T02:11:08.112Z,100.00
2019-04-20T02:13:45.646Z,100.00
2019-04-20T02:16:15.865Z,100.00
2019-04-20T02:18:51.645Z,100.00
2019-04-20T02:21:30.073Z,100.00
2019-04-20T02:23:49.682Z,100.00
2019-04-20T02:26:14.008Z,100.00
2019-04-20T02:29:05.737Z,100.00
2019-04-20T02:32:01.480Z,100.00
2019-04-20T02:34:39.778Z,100.00
2019-04-20T02:47:14.721Z,100.00
2019-04-20T02:54:47.226Z,100.00
2019-04-20T03:00:03.257Z,98.39
2019-04-20T03:02:04.122Z,98.58
2019-04-20T03:04:25.719Z,98.77
2019-04-20T03:07:05.451Z,99.77
2019-04-20T03:09:40.323Z,99.17
2019-04-20T03:12:17.021Z,97.50
2019-04-20T03:14:35.165Z,97.56
2019-04-20T03:17:17.217Z,96.33
2019-04-20T03:19:38.681Z,96.67
2019-04-20T03:22:13.483Z,97.80
2019-04-20T03:24:50.039Z,96.82
2019-04-20T03:27:24.755Z,97.16
2019-04-20T03:30:39.674Z,98.03
2019-04-20T03:35:23.937Z,99.98
2019-04-20T03:37:50.984Z,100.00
2019-04-20T03:40:12.881Z,100.00
2019-04-20T03:42:30.905Z,100.00
2019-04-20T03:45:06.143Z,100.00
2019-04-20T03:47:43.778Z,100.00
2019-04-20T03:50:24.435Z,100.00
2019-04-20T03:53:13.053Z,99.91
2019-04-20T03:55:56.794Z,95.09
2019-04-20T03:58:36.030Z,94.46
2019-04-20T04:01:35.866Z,93.62
2019-04-20T04:04:21.437Z,94.54
2019-04-20T04:06:39.049Z,94.21
2019-04-20T04:09:13.626Z,93.74
2019-04-20T04:11:48.589Z,95.80
2019-04-20T04:14:03.422Z,96.65
2019-04-20T04:16:37.443Z,96.94
2019-04-20T04:19:12.808Z,96.62
2019-04-20T04:21:49.679Z,96.72
2019-04-20T04:24:17.250Z,97.54
2019-04-20T04:26:51.576Z,97.73
2019-04-20T04:29:29.879Z,98.70
2019-04-20T04:32:05.502Z,99.03
2019-04-20T04:34:30.807Z,98.36
2019-04-20T04:37:01.986Z,98.75
2019-04-20T04:39:33.941Z,97.98
2019-04-20T04:42:15.215Z,97.19
2019-04-20T04:44:26.306Z,97.09
2019-04-20T04:46:52.408Z,98.29
2019-04-20T04:49:20.769Z,98.25
2019-04-20T04:51:54.456Z,97.36
2019-04-20T04:54:26.880Z,97.43
2019-04-20T04:56:46.740Z,95.98
2019-04-20T04:59:17.148Z,96.82
2019-04-20T05:01:51.437Z,97.57
2019-04-20T05:04:43.105Z,97.39
2019-04-20T05:07:05.122Z,95.90
2019-04-20T05:09:23.828Z,96.21
2019-04-20T05:11:59.729Z,94.52
2019-04-20T05:14:37.469Z,94.20
2019-04-20T05:17:11.449Z,95.09
2019-04-20T05:19:47.615Z,95.35
2019-04-20T05:22:24.738Z,95.05
2019-04-20T05:24:56.712Z,95.21
2019-04-20T05:27:59.374Z,95.40
2019-04-20T05:30:07.900Z,95.39
2019-04-20T05:32:46.924Z,95.58
2019-04-20T05:35:40.807Z,95.65
2019-04-20T05:38:06.352Z,94.13
2019-04-20T05:40:35.549Z,93.47
2019-04-20T05:43:13.153Z,91.32
2019-04-20T05:45:38.858Z,91.45
2019-04-20T05:48:13.058Z,90.30
2019-04-20T05:50:43.754Z,89.75
2019-04-20T05:53:22.163Z,88.00
2019-04-20T05:55:47.255Z,88.81
2019-04-20T05:58:24.559Z,88.89
2019-04-20T06:00:56.857Z,88.28
2019-04-20T06:03:23.056Z,87.73
2019-04-20T06:06:00.847Z,87.59
2019-04-20T06:08:32.047Z,87.68
2019-04-20T06:10:56.499Z,87.40
2019-04-20T06:13:32.688Z,86.83
2019-04-20T06:16:18.684Z,86.36
2019-04-20T06:19:18.850Z,86.69
2019-04-20T06:21:43.951Z,85.94
2019-04-20T06:24:30.258Z,85.07
2019-04-20T06:27:08.276Z,84.76
2019-04-20T06:29:23.691Z,83.25
2019-04-20T06:31:57.476Z,82.96
2019-04-20T06:34:34.387Z,80.81
2019-04-20T06:36:56.936Z,80.29
2019-04-20T06:44:45.817Z,80.42
2019-04-20T06:49:36.695Z,78.77
2019-04-20T06:52:42.253Z,77.13
2019-04-20T06:55:28.901Z,77.62
2019-04-20T07:00:15.501Z,74.74
2019-04-20T07:05:22.460Z,72.69
2019-04-20T07:07:54.899Z,70.35
2019-04-20T07:10:39.496Z,64.05
2019-04-20T07:12:49.739Z,62.75
2019-04-20T07:15:33.638Z,63.15
2019-04-20T07:20:56.723Z,60.81
2019-04-20T07:25:58.542Z,56.71
2019-04-20T07:28:29.187Z,58.43
2019-04-20T07:30:53.949Z,55.85
2019-04-20T07:33:28.514Z,55.30
2019-04-20T07:35:50.958Z,47.98
2019-04-20T07:40:57.637Z,48.41
2019-04-20T07:43:28.348Z,49.62
2019-04-20T07:46:04.197Z,50.57
2019-04-20T07:48:24.814Z,45.21
2019-04-20T07:50:53.332Z,47.77
2019-04-20T07:53:25.715Z,49.99
2019-04-20T07:56:05.021Z,48.74
2019-04-20T07:58:25.186Z,47.06
2019-04-20T08:01:15.182Z,45.14
2019-04-20T08:03:50.409Z,46.17
2019-04-20T08:06:40.673Z,45.99
2019-04-20T08:09:16.030Z,46.83
2019-04-20T08:11:55.456Z,45.88
2019-04-20T08:14:35.707Z,44.63
2019-04-20T08:17:14.106Z,46.61
2019-04-20T08:19:27.314Z,46.52
2019-04-20T08:21:58.465Z,46.08
2019-04-20T08:24:27.897Z,46.35
2019-04-20T08:26:48.600Z,46.02
2019-04-20T08:29:29.094Z,44.37
2019-04-20T08:32:24.079Z,44.38
2019-04-20T08:34:55.957Z,47.72
2019-04-20T08:37:22.256Z,46.22
2019-04-20T08:40:01.511Z,48.42
2019-04-20T08:42:28.621Z,47.88
2019-04-20T08:47:37.933Z,47.20
2019-04-20T08:50:16.787Z,45.50
2019-04-20T08:53:03.573Z,47.64
2019-04-20T08:55:09.280Z,46.60
2019-04-20T08:57:24.794Z,47.75
2019-04-20T08:59:54.478Z,45.34
2019-04-20T09:02:23.986Z,47.95
2019-04-20T09:05:01.035Z,45.51
2019-04-20T09:07:28.825Z,49.22
2019-04-20T09:10:16.653Z,46.13
2019-04-20T09:12:39.293Z,49.45
2019-04-20T09:14:57.503Z,47.60
2019-04-20T09:17:49.426Z,41.07
2019-04-20T09:20:29.109Z,43.23
2019-04-20T09:23:13.196Z,43.82
2019-04-20T09:26:01.419Z,42.41
2019-04-20T09:28:18.738Z,41.08
2019-04-20T09:30:50.459Z,39.73
2019-04-20T09:33:58.758Z,40.20
2019-04-20T09:36:30.707Z,41.45
2019-04-20T09:39:12.803Z,38.83
2019-04-20T09:42:04.801Z,37.92
2019-04-20T09:44:24.569Z,35.76
2019-04-20T09:46:56.315Z,37.08
2019-04-20T09:49:35.326Z,37.45
2019-04-20T09:52:08.086Z,35.47
2019-04-20T09:54:41.616Z,36.38
2019-04-20T09:57:16.101Z,36.37
2019-04-20T09:59:44.690Z,37.35
2019-04-20T10:02:06.667Z,36.89
2019-04-20T10:04:27.472Z,34.94
2019-04-20T10:07:02.308Z,35.36
2019-04-20T10:09:32.692Z,34.53
2019-04-20T10:11:59.685Z,34.42
2019-04-20T10:14:30.970Z,36.08
2019-04-20T10:17:02.006Z,35.69
2019-04-20T10:19:34.690Z,35.34
2019-04-20T10:22:02.545Z,32.17
2019-04-20T10:24:32.775Z,33.59
2019-04-20T10:27:03.022Z,33.51
2019-04-20T10:29:33.593Z,34.05
2019-04-20T10:32:08.839Z,34.35
2019-04-20T10:34:34.739Z,34.77
2019-04-20T10:37:17.604Z,39.61
2019-04-20T10:39:47.033Z,34.17
2019-04-20T10:42:16.358Z,34.64
2019-04-20T10:44:45.619Z,34.14
2019-04-20T10:47:15.009Z,35.41
2019-04-20T10:49:45.021Z,34.05
2019-04-20T10:52:15.760Z,35.13
2019-04-20T10:54:50.378Z,35.36
2019-04-20T10:57:23.730Z,35.83
2019-04-20T10:59:55.937Z,36.08
2019-04-20T11:02:25.969Z,34.46
2019-04-20T11:04:58.841Z,34.04
2019-04-20T11:07:36.611Z,36.44
2019-04-20T11:10:17.334Z,33.20
2019-04-20T11:12:42.161Z,34.02
2019-04-20T11:15:12.524Z,32.84
2019-04-20T11:17:41.949Z,33.05
2019-04-20T11:20:11.187Z,34.40
2019-04-20T11:22:40.627Z,33.03
2019-04-20T11:25:10.310Z,34.85
2019-04-20T11:27:40.512Z,34.46
2019-04-20T11:30:11.755Z,36.61
2019-04-20T11:32:42.183Z,36.96
2019-04-20T11:35:21.095Z,35.17
2019-04-20T11:37:42.905Z,35.44
2019-04-20T11:40:12.927Z,33.56
2019-04-20T11:42:43.705Z,34.38
2019-04-20T11:45:13.196Z,35.06
2019-04-20T11:47:43.289Z,32.48
2019-04-20T11:50:13.712Z,31.98
2019-04-20T11:52:47.515Z,32.57
2019-04-20T11:55:14.158Z,31.66
2019-04-20T11:57:43.415Z,34.42
2019-04-20T12:00:17.167Z,33.25
2019-04-20T12:03:13.683Z,34.59
2019-04-20T12:05:41.520Z,36.63
2019-04-20T12:08:09.214Z,34.56
2019-04-20T12:10:39.221Z,33.22
2019-04-20T12:13:10.194Z,33.89
2019-04-20T12:15:41.063Z,33.15
2019-04-20T12:18:11.627Z,36.10
2019-04-20T12:20:41.244Z,33.08
2019-04-20T12:23:10.659Z,30.75
2019-04-20T12:25:43.206Z,31.16
2019-04-20T12:28:13.661Z,34.22
2019-04-20T12:30:43.899Z,34.03
2019-04-20T12:33:13.718Z,33.01
2019-04-20T12:35:44.420Z,33.99
2019-04-20T12:38:14.895Z,35.45
2019-04-20T12:40:44.374Z,33.23
2019-04-20T12:43:15.035Z,33.39
2019-04-20T12:45:44.596Z,34.34
2019-04-20T12:48:13.850Z,35.54
2019-04-20T12:50:43.767Z,36.34
2019-04-20T12:53:13.089Z,35.03
2019-04-20T12:55:42.350Z,35.37
2019-04-20T12:58:12.577Z,32.33
2019-04-20T13:00:43.783Z,33.52
2019-04-20T13:03:13.729Z,33.85
2019-04-20T13:05:43.679Z,33.76
2019-04-20T13:08:23.278Z,33.40
2019-04-20T13:10:48.720Z,33.29
2019-04-20T13:13:28.695Z,32.37
2019-04-20T13:16:10.567Z,33.88
2019-04-20T13:18:47.505Z,33.96
2019-04-20T13:21:16.962Z,32.86
2019-04-20T13:23:47.073Z,30.30
2019-04-20T13:26:17.462Z,30.36
2019-04-20T13:28:46.924Z,30.57
2019-04-20T13:31:16.164Z,30.00
2019-04-20T13:33:45.445Z,28.12
2019-04-20T13:36:14.686Z,27.53
2019-04-20T13:38:44.154Z,29.48
2019-04-20T13:41:13.854Z,30.75
2019-04-20T13:43:43.926Z,32.47
2019-04-20T13:46:13.417Z,33.48
2019-04-20T13:48:42.799Z,34.94
2019-04-20T13:51:12.703Z,38.35
2019-04-20T13:53:43.312Z,39.36
2019-04-20T13:56:14.032Z,40.03
2019-04-20T13:59:01.797Z,40.65
2019-04-20T14:01:48.749Z,39.69
2019-04-20T14:04:23.619Z,41.46
2019-04-20T14:06:54.071Z,38.87
2019-04-20T14:09:25.662Z,36.15
2019-04-20T14:12:10.324Z,32.34
2019-04-20T14:14:31.106Z,31.17
2019-04-20T14:17:01.171Z,30.89
2019-04-20T14:19:31.409Z,29.93
2019-04-20T14:22:02.176Z,26.58
2019-04-20T14:24:33.043Z,28.12
2019-04-20T14:27:03.342Z,29.08
2019-04-20T14:29:32.885Z,30.83
2019-04-20T14:32:03.657Z,32.82
2019-04-20T14:34:33.141Z,32.62
2019-04-20T14:37:02.638Z,33.86
2019-04-20T14:39:32.357Z,34.38
2019-04-20T14:42:02.457Z,34.90
2019-04-20T14:44:32.141Z,36.24
2019-04-20T14:47:01.421Z,38.63
2019-04-20T14:49:30.693Z,39.35
2019-04-20T14:52:01.551Z,40.39
2019-04-20T14:54:31.822Z,40.82
2019-04-20T14:57:01.530Z,41.18
2019-04-20T14:59:49.676Z,42.33
2019-04-20T15:02:21.733Z,42.16
2019-04-20T15:04:51.080Z,42.41
2019-04-20T15:07:20.575Z,41.87
2019-04-20T15:09:51.080Z,41.99
2019-04-20T15:12:21.246Z,41.56
2019-04-20T15:14:50.705Z,40.46
2019-04-20T15:17:29.896Z,40.27
2019-04-20T15:20:29.806Z,40.05
2019-04-20T15:23:01.359Z,40.12
2019-04-20T15:25:31.664Z,41.42
2019-04-20T15:28:02.626Z,42.02
2019-04-20T15:30:32.192Z,42.13
2019-04-20T15:33:03.024Z,43.05
2019-04-20T15:35:33.425Z,42.79
2019-04-20T15:38:03.481Z,41.79
2019-04-20T15:40:35.239Z,42.96
2019-04-20T15:43:12.481Z,43.67
2019-04-20T15:45:36.977Z,44.60
2019-04-20T15:48:07.844Z,44.76
2019-04-20T15:50:38.192Z,44.47
2019-04-20T15:53:08.017Z,45.29
2019-04-20T15:55:40.247Z,44.86
2019-04-20T15:58:08.515Z,45.60
2019-04-20T16:00:38.338Z,45.32
2019-04-20T16:03:27.553Z,46.07
2019-04-20T16:06:03.284Z,45.99
2019-04-20T16:08:34.609Z,44.55
2019-04-20T16:11:06.836Z,45.77
2019-04-20T16:13:40.234Z,45.39
2019-04-20T16:16:07.858Z,44.88
2019-04-20T16:18:38.978Z,45.38
2019-04-20T16:21:14.209Z,46.09
2019-04-20T16:23:43.812Z,46.26
2019-04-20T16:26:23.866Z,47.34
2019-04-20T16:28:53.517Z,48.03
2019-04-20T16:31:24.393Z,48.47
2019-04-20T16:33:56.871Z,48.52
2019-04-20T16:36:26.074Z,49.02
2019-04-20T16:38:55.595Z,47.86
2019-04-20T16:41:26.300Z,47.67
2019-04-20T16:43:55.720Z,47.34
2019-04-20T16:46:25.831Z,48.22
2019-04-20T16:48:56.913Z,52.67
2019-04-20T16:51:27.017Z,49.80
2019-04-20T16:53:56.411Z,47.90
2019-04-20T16:56:26.522Z,47.69
2019-04-20T16:59:01.416Z,49.77
2019-04-20T17:01:27.565Z,51.39
2019-04-20T17:04:06.551Z,51.37
2019-04-20T17:06:29.818Z,51.19
2019-04-20T17:09:01.030Z,49.65
2019-04-20T17:11:31.807Z,51.57
2019-04-20T17:14:03.531Z,51.57
2019-04-20T17:16:33.507Z,49.96
2019-04-20T17:19:03.796Z,51.13
2019-04-20T17:21:34.178Z,50.75
2019-04-20T17:24:04.243Z,53.32
2019-04-20T17:26:40.971Z,54.60
2019-04-20T17:29:15.924Z,55.98
2019-04-20T17:32:16.062Z,56.47
2019-04-20T17:35:00.237Z,56.23
2019-04-20T17:37:20.880Z,58.52
2019-04-20T17:40:10.787Z,58.83
2019-04-20T17:42:37.474Z,58.20
2019-04-20T17:45:02.201Z,61.21
2019-04-20T17:47:44.834Z,62.56
2019-04-20T17:50:12.298Z,58.98
2019-04-20T17:52:47.513Z,60.15
2019-04-20T17:55:01.679Z,59.22
2019-04-20T17:57:31.209Z,60.11
2019-04-20T18:00:12.147Z,61.01
2019-04-20T18:03:03.334Z,60.10
2019-04-20T18:05:42.670Z,63.29
2019-04-20T18:08:10.328Z,61.51
2019-04-20T18:10:35.420Z,59.62
2019-04-20T18:12:56.744Z,60.62
2019-04-20T18:15:40.375Z,62.32
2019-04-20T18:18:45.021Z,60.99
2019-04-20T18:21:17.005Z,61.51
2019-04-20T18:23:48.566Z,62.82
2019-04-20T18:26:40.949Z,61.98
2019-04-20T18:29:26.795Z,60.74
2019-04-20T18:31:39.617Z,62.12
2019-04-20T18:34:16.487Z,62.95
2019-04-20T18:36:47.621Z,64.17
2019-04-20T18:39:18.056Z,65.53
2019-04-20T18:41:52.142Z,65.26
2019-04-20T18:44:22.327Z,65.82
2019-04-20T18:47:13.538Z,65.73
2019-04-20T18:49:36.022Z,67.10
2019-04-20T18:51:51.629Z,65.14
2019-04-20T18:54:25.766Z,63.45
2019-04-20T18:56:53.370Z,63.82
2019-04-20T18:59:30.415Z,62.13
2019-04-20T19:01:54.989Z,62.08
2019-04-20T19:04:25.813Z,64.64
2019-04-20T19:06:56.064Z,64.92
2019-04-20T19:09:30.309Z,65.37
2019-04-20T19:12:02.224Z,65.26
2019-04-20T19:14:49.331Z,68.27
2019-04-20T19:18:06.590Z,69.88
2019-04-20T19:20:28.914Z,69.34
2019-04-20T19:22:59.947Z,67.33
2019-04-20T19:25:34.543Z,68.54
2019-04-20T19:28:03.360Z,69.95
2019-04-20T19:30:43.687Z,72.03
2019-04-20T19:33:19.085Z,74.12
2019-04-20T19:35:46.606Z,73.46
2019-04-20T19:38:12.565Z,72.81
2019-04-20T19:40:47.817Z,73.59
2019-04-20T19:43:17.119Z,72.66
2019-04-20T19:46:15.483Z,72.09
2019-04-20T19:48:25.469Z,71.43
2019-04-20T19:51:08.387Z,72.64
2019-04-20T19:53:31.862Z,72.18
2019-04-20T19:55:58.368Z,74.19
2019-04-20T19:58:26.570Z,74.75
2019-04-20T20:00:50.803Z,75.22
2019-04-20T20:03:17.845Z,76.42
2019-04-20T20:05:49.913Z,77.89
2019-04-20T20:08:23.302Z,75.99
2019-04-20T20:10:50.597Z,75.17
2019-04-20T20:13:20.533Z,77.02
2019-04-20T20:15:57.655Z,76.96
2019-04-20T20:18:37.942Z,75.08
2019-04-20T20:21:10.036Z,72.29
2019-04-20T20:23:25.701Z,75.58
2019-04-20T20:25:55.136Z,74.11
2019-04-20T20:28:33.277Z,74.36
2019-04-20T20:31:08.038Z,68.87
2019-04-20T20:33:46.771Z,68.78
2019-04-20T20:36:06.623Z,68.77
2019-04-20T20:38:37.667Z,71.12
2019-04-20T20:41:12.736Z,73.33
2019-04-20T20:43:51.148Z,74.48
2019-04-20T20:46:18.582Z,74.57
2019-04-20T20:49:00.569Z,73.96
2019-04-20T20:51:34.456Z,75.71
2019-04-20T20:53:50.971Z,74.78
2019-04-20T20:56:18.500Z,73.14
2019-04-20T20:58:52.012Z,74.51
2019-04-20T21:01:17.573Z,73.58
2019-04-20T21:03:46.091Z,74.70
2019-04-20T21:06:14.683Z,75.13
2019-04-20T21:08:48.738Z,80.65
2019-04-20T21:11:21.649Z,83.39
2019-04-20T21:13:48.399Z,84.46
2019-04-20T21:16:25.042Z,86.15
2019-04-20T21:19:05.979Z,86.16
2019-04-20T21:21:33.630Z,84.00
2019-04-20T21:24:03.905Z,82.92
2019-04-20T21:26:35.051Z,81.71
2019-04-20T21:28:59.698Z,81.67
2019-04-20T21:31:29.670Z,81.98
2019-04-20T21:34:06.790Z,82.68
2019-04-20T21:36:33.476Z,85.57
2019-04-20T21:39:08.698Z,81.38
2019-04-20T21:41:40.828Z,79.01
2019-04-20T21:44:18.167Z,81.87
2019-04-20T21:46:44.271Z,85.93
2019-04-20T21:49:23.689Z,88.44
2019-04-20T21:51:48.967Z,88.83
2019-04-20T21:54:12.040Z,88.11
2019-04-20T21:56:52.482Z,87.18
2019-04-20T21:59:20.412Z,86.80
2019-04-20T22:01:56.322Z,85.16
2019-04-20T22:04:14.722Z,83.82
2019-04-20T22:06:44.646Z,85.29
2019-04-20T22:09:15.004Z,86.11
2019-04-20T22:11:44.948Z,85.67
2019-04-20T22:14:18.691Z,86.12
2019-04-20T22:16:49.553Z,86.76
2019-04-20T22:19:33.158Z,86.28
2019-04-20T22:22:00.586Z,86.17
2019-04-20T22:24:35.496Z,85.37
2019-04-20T22:26:59.975Z,84.94
2019-04-20T22:29:21.512Z,84.29
2019-04-20T22:31:53.605Z,85.62
2019-04-20T22:34:25.965Z,84.72
2019-04-20T22:36:53.876Z,84.20
2019-04-20T22:39:36.904Z,85.15
2019-04-20T22:42:08.583Z,84.86
2019-04-20T22:44:34.036Z,85.76
2019-04-20T22:47:13.963Z,85.83
2019-04-20T22:49:48.270Z,89.17
2019-04-20T22:52:26.734Z,92.05
2019-04-20T22:54:55.305Z,91.96
2019-04-20T22:57:29.767Z,93.49
2019-04-20T22:59:52.386Z,94.43
2019-04-20T23:02:16.281Z,93.37
2019-04-20T23:04:46.740Z,93.19
2019-04-20T23:07:16.840Z,91.05
2019-04-20T23:09:52.899Z,89.41
2019-04-20T23:12:22.589Z,90.48
2019-04-20T23:14:49.907Z,89.78
2019-04-20T23:17:27.217Z,88.59
2019-04-20T23:19:56.198Z,87.46
2019-04-20T23:22:23.106Z,86.79
2019-04-20T23:24:53.295Z,86.72
2019-04-20T23:27:27.277Z,88.43
2019-04-20T23:29:55.274Z,87.53
2019-04-20T23:32:27.994Z,87.20
2019-04-20T23:35:03.469Z,88.19
2019-04-20T23:37:31.218Z,88.74
2019-04-20T23:39:58.034Z,87.99
2019-04-20T23:42:38.533Z,87.83
2019-04-20T23:45:38.824Z,87.46
2019-04-20T23:48:08.540Z,88.08
2019-04-20T23:50:56.997Z,87.29
2019-04-20T23:53:24.702Z,87.98
2019-04-20T23:55:41.465Z,87.15
2019-04-20T23:58:12.611Z,87.65
